Time;durP1;ratioP1;P1;durP2;ratioP2;P2;SDS_P1;SDS_P2;PMS_P1;PMS_P2;Temp;Humidity;BMP_temperature;BMP_pressure;BME280_temperature;BME280_humidity;BME280_pressure;Samples;Min_cycle;Max_cycle;Signal;HPM_P1;HPM_P2
2023/03/03 00:00:48;;;;;;;31.70;12.25;;;2.70;99.90;;;;;;5049973;28;20041;-75
2023/03/03 00:03:17;;;;;;;65.97;15.13;;;2.60;99.90;;;;;;5049525;28;20045;-75
2023/03/03 00:05:43;;;;;;;35.45;12.50;;;2.50;99.90;;;;;;5032939;28;20056;-74
2023/03/03 00:08:09;;;;;;;49.20;14.70;;;3.40;99.90;;;;;;5016267;28;20045;-75
2023/03/03 00:10:35;;;;;;;34.10;11.40;;;2.70;99.90;;;;;;5016521;28;20045;-75
2023/03/03 00:13:01;;;;;;;49.78;11.93;;;3.20;99.90;;;;;;5050264;28;20045;-75
2023/03/03 00:15:29;;;;;;;48.75;11.07;;;2.80;99.90;;;;;;5016398;28;20044;-75
2023/03/03 00:17:55;;;;;;;55.63;11.65;;;2.80;99.90;;;;;;5033149;28;20125;-75
2023/03/03 00:20:38;;;;;;;35.15;10.95;;;2.90;99.90;;;;;;5032551;28;20048;-75
2023/03/03 00:23:25;;;;;;;25.63;10.52;;;2.70;99.90;;;;;;5050393;28;20037;-75
2023/03/03 00:25:52;;;;;;;37.75;12.43;;;2.60;99.90;;;;;;5050162;28;20072;-78
2023/03/03 00:28:23;;;;;;;36.55;12.65;;;2.60;99.90;;;;;;5050098;28;20434;-75
2023/03/03 00:30:50;;;;;;;74.95;13.77;;;2.80;99.90;;;;;;5050057;28;20473;-74
2023/03/03 00:33:41;;;;;;;33.70;12.23;;;2.60;99.90;;;;;;5031871;28;20397;-74
2023/03/03 00:36:36;;;;;;;32.17;11.55;;;3.30;99.90;;;;;;5050075;28;20049;-75
2023/03/03 00:39:24;;;;;;;43.63;12.82;;;2.60;99.90;;;;;;5049821;28;20052;-75
2023/03/03 00:41:50;;;;;;;35.30;11.05;;;2.50;99.90;;;;;;5050330;28;20120;-74
2023/03/03 00:44:38;;;;;;;33.35;11.00;;;2.60;99.90;;;;;;5050038;28;20041;-74
2023/03/03 00:47:25;;;;;;;57.60;12.25;;;2.60;99.90;;;;;;5031988;28;20041;-75
2023/03/03 00:50:12;;;;;;;55.13;13.68;;;2.90;99.90;;;;;;5049873;28;20082;-75
2023/03/03 00:52:43;;;;;;;37.90;10.60;;;2.80;99.90;;;;;;5032023;28;20049;-74
2023/03/03 00:55:10;;;;;;;77.13;13.20;;;2.60;99.90;;;;;;5049850;28;20040;-75
2023/03/03 00:57:36;;;;;;;43.20;11.75;;;2.90;99.90;;;;;;5049900;28;20091;-75
2023/03/03 01:00:03;;;;;;;39.10;11.60;;;2.50;99.90;;;;;;5032181;28;20069;-75
2023/03/03 01:02:29;;;;;;;49.65;10.85;;;2.60;99.90;;;;;;5049209;28;20443;-75
2023/03/03 01:04:55;;;;;;;70.07;10.52;;;3.60;99.90;;;;;;5049961;28;20109;-75
2023/03/03 01:07:22;;;;;;;65.15;11.15;;;3.10;99.90;;;;;;5049629;28;20049;-75
2023/03/03 01:09:48;;;;;;;73.82;11.35;;;2.90;99.90;;;;;;5031948;28;20048;-75
2023/03/03 01:12:14;;;;;;;52.25;10.60;;;2.90;99.90;;;;;;5049770;28;20049;-74
2023/03/03 01:14:40;;;;;;;65.15;11.13;;;2.80;99.90;;;;;;5035574;28;20098;-75
2023/03/03 01:17:07;;;;;;;46.53;10.80;;;2.80;99.90;;;;;;5035312;28;20462;-75
2023/03/03 01:19:33;;;;;;;64.90;11.65;;;3.30;99.90;;;;;;5035167;28;20041;-75
2023/03/03 01:22:00;;;;;;;42.15;10.10;;;3.30;99.90;;;;;;5035513;28;20101;-74
2023/03/03 01:24:26;;;;;;;53.10;12.18;;;2.60;99.90;;;;;;5034978;28;20037;-75
2023/03/03 01:26:51;;;;;;;51.63;11.00;;;3.10;99.90;;;;;;5019594;28;20045;-75
2023/03/03 01:29:17;;;;;;;66.70;12.40;;;2.70;99.90;;;;;;5035142;28;20045;-75
2023/03/03 01:31:43;;;;;;;104.18;14.55;;;2.70;99.90;;;;;;5034384;28;20128;-75
2023/03/03 01:34:09;;;;;;;68.97;11.80;;;2.70;99.90;;;;;;5052715;28;20116;-75
2023/03/03 01:36:35;;;;;;;57.63;13.35;;;2.60;99.90;;;;;;5052718;28;20113;-75
2023/03/03 01:39:01;;;;;;;45.72;11.43;;;2.60;99.90;;;;;;5034742;28;20041;-75
2023/03/03 01:41:31;;;;;;;45.83;11.65;;;3.50;99.90;;;;;;5052895;28;20097;-75
2023/03/03 01:43:56;;;;;;;73.90;14.50;;;3.10;99.90;;;;;;5035294;28;20040;-75
2023/03/03 01:46:57;;;;;;;48.13;10.23;;;2.80;99.90;;;;;;5052560;28;20539;-75
2023/03/03 01:49:40;;;;;;;86.20;14.43;;;2.50;99.90;;;;;;5053053;28;20049;-75
2023/03/03 01:52:20;;;;;;;76.33;12.33;;;2.70;99.90;;;;;;5052908;28;20132;-75
2023/03/03 01:54:52;;;;;;;61.80;10.98;;;2.50;99.90;;;;;;5035151;28;20554;-75
2023/03/03 01:57:26;;;;;;;59.83;11.03;;;2.80;99.90;;;;;;5052714;28;20089;-75
2023/03/03 01:59:54;;;;;;;55.00;12.15;;;2.70;99.90;;;;;;5052084;28;20033;-75
2023/03/03 02:02:20;;;;;;;66.88;11.25;;;3.20;99.90;;;;;;5051893;28;20084;-75
2023/03/03 02:04:46;;;;;;;56.13;12.05;;;2.60;99.90;;;;;;5018072;28;20052;-75
2023/03/03 02:07:14;;;;;;;98.57;14.82;;;3.70;99.90;;;;;;5034512;28;20044;-75
2023/03/03 02:09:46;;;;;;;54.85;12.60;;;3.70;99.90;;;;;;5034550;28;20055;-74
2023/03/03 02:12:15;;;;;;;100.25;15.95;;;2.70;99.90;;;;;;5052063;28;20400;-74
2023/03/03 02:14:41;;;;;;;84.03;14.57;;;3.80;99.90;;;;;;5052226;28;20057;-75
2023/03/03 02:17:07;;;;;;;67.63;12.68;;;3.60;99.90;;;;;;5051954;28;20097;-75
2023/03/03 02:19:51;;;;;;;71.05;12.75;;;2.60;99.90;;;;;;5034216;28;20033;-75
2023/03/03 02:22:25;;;;;;;109.43;15.43;;;2.80;99.90;;;;;;5051919;28;20049;-75
2023/03/03 02:24:58;;;;;;;111.88;13.15;;;2.30;99.90;;;;;;5051310;28;20044;-75
2023/03/03 02:27:26;;;;;;;92.72;11.80;;;3.30;99.90;;;;;;5052124;28;20099;-75
2023/03/03 02:29:52;;;;;;;98.47;14.00;;;2.30;99.90;;;;;;5034357;28;20041;-74
2023/03/03 02:32:17;;;;;;;64.75;10.18;;;2.40;99.90;;;;;;5051316;28;20040;-75
2023/03/03 02:34:46;;;;;;;105.63;13.52;;;3.20;99.90;;;;;;5051788;28;20041;-75
2023/03/03 02:37:12;;;;;;;76.15;11.38;;;2.60;99.90;;;;;;5051745;28;20037;-75
2023/03/03 02:39:38;;;;;;;89.80;12.32;;;2.20;99.90;;;;;;5051528;28;20484;-74
2023/03/03 02:42:20;;;;;;;104.60;13.50;;;2.10;99.90;;;;;;5051773;28;20049;-75
2023/03/03 02:44:46;;;;;;;116.55;13.52;;;2.10;99.90;;;;;;5051731;28;20447;-75
2023/03/03 02:47:12;;;;;;;102.10;13.23;;;2.10;99.90;;;;;;5051493;28;20041;-74
2023/03/03 02:49:38;;;;;;;112.53;15.52;;;2.00;99.90;;;;;;5034184;28;20359;-75
2023/03/03 02:52:08;;;;;;;88.90;13.05;;;2.90;99.90;;;;;;5051307;28;20056;-75
2023/03/03 02:54:35;;;;;;;120.60;13.30;;;2.10;99.90;;;;;;5051599;28;20194;-75
2023/03/03 02:57:01;;;;;;;63.05;10.95;;;2.00;99.90;;;;;;5033982;28;20484;-75
2023/03/03 02:59:27;;;;;;;84.57;13.73;;;2.10;99.90;;;;;;5051426;28;20132;-75
2023/03/03 03:01:54;;;;;;;89.32;12.52;;;2.00;99.90;;;;;;5033150;28;20381;-75
2023/03/03 03:04:23;;;;;;;85.45;12.18;;;2.10;99.90;;;;;;5033737;28;20413;-75
2023/03/03 03:06:49;;;;;;;81.95;11.48;;;3.00;99.90;;;;;;5033493;28;20193;-75
2023/03/03 03:09:16;;;;;;;129.88;14.25;;;2.70;99.90;;;;;;5051208;28;20059;-75
2023/03/03 03:11:43;;;;;;;90.97;11.55;;;2.00;99.90;;;;;;5051108;28;20048;-75
2023/03/03 03:14:10;;;;;;;108.95;13.43;;;3.10;99.90;;;;;;5033855;28;20052;-75
2023/03/03 03:16:36;;;;;;;69.50;11.88;;;2.20;99.90;;;;;;5050962;28;20037;-75
2023/03/03 03:19:03;;;;;;;65.32;11.07;;;3.20;99.90;;;;;;5051109;28;20393;-75
2023/03/03 03:21:30;;;;;;;120.57;15.10;;;2.10;99.90;;;;;;5050844;28;20504;-75
2023/03/03 03:23:56;;;;;;;85.70;10.88;;;2.30;99.90;;;;;;5051345;28;20124;-75
2023/03/03 03:26:21;;;;;;;126.18;12.70;;;2.00;99.90;;;;;;5050928;28;20438;-75
2023/03/03 03:28:48;;;;;;;72.63;10.25;;;2.40;99.90;;;;;;5033341;28;20047;-75
2023/03/03 03:31:15;;;;;;;110.88;11.98;;;2.20;99.90;;;;;;5032547;28;20084;-76
2023/03/03 03:33:41;;;;;;;93.25;10.95;;;3.70;99.90;;;;;;5033364;28;20097;-75
2023/03/03 03:36:08;;;;;;;69.97;10.30;;;2.30;99.90;;;;;;5049630;28;20049;-75
2023/03/03 03:38:35;;;;;;;82.25;11.68;;;1.90;99.90;;;;;;5033048;28;20449;-75
2023/03/03 03:41:02;;;;;;;100.72;10.10;;;2.30;99.90;;;;;;5017267;28;20045;-75
2023/03/03 03:43:28;;;;;;;57.95;8.68;;;1.90;99.90;;;;;;5033266;28;20492;-75
2023/03/03 03:45:54;;;;;;;76.38;8.85;;;1.90;99.90;;;;;;5050696;28;20041;-75
2023/03/03 03:48:19;;;;;;;66.97;9.55;;;2.00;99.90;;;;;;5033008;28;20492;-75
2023/03/03 03:50:49;;;;;;;86.30;8.85;;;2.70;99.90;;;;;;5016846;28;20041;-74
2023/03/03 03:53:16;;;;;;;50.28;7.18;;;2.10;99.90;;;;;;5033009;28;20066;-75
2023/03/03 03:55:42;;;;;;;43.42;7.25;;;2.80;99.90;;;;;;5050522;28;20116;-76
2023/03/03 03:58:11;;;;;;;66.22;7.97;;;2.10;99.90;;;;;;5050723;28;20425;-74
2023/03/03 04:00:40;;;;;;;50.70;9.00;;;1.80;99.90;;;;;;5050336;28;20044;-74
2023/03/03 04:03:05;;;;;;;52.58;7.32;;;2.50;99.90;;;;;;5049813;28;20475;-75
2023/03/03 04:05:31;;;;;;;55.53;7.40;;;3.00;99.90;;;;;;5016669;28;20055;-75
2023/03/03 04:07:57;;;;;;;52.10;7.63;;;2.90;99.90;;;;;;5050229;28;20091;-75
2023/03/03 04:10:22;;;;;;;30.88;5.97;;;2.10;99.90;;;;;;5050469;28;20033;-75
2023/03/03 04:12:48;;;;;;;65.28;8.45;;;3.00;99.90;;;;;;5032432;28;20078;-75
2023/03/03 04:15:14;;;;;;;55.05;6.82;;;2.70;99.90;;;;;;5050140;28;20105;-74
2023/03/03 04:17:40;;;;;;;45.17;5.90;;;2.70;99.90;;;;;;5049973;28;20045;-75
2023/03/03 04:20:07;;;;;;;96.70;8.10;;;1.80;99.90;;;;;;5050356;28;20034;-75
2023/03/03 04:22:34;;;;;;;43.45;6.20;;;1.80;99.90;;;;;;5050105;28;20045;-75
2023/03/03 04:25:04;;;;;;;58.15;6.70;;;2.20;99.90;;;;;;5050199;28;20045;-75
2023/03/03 04:27:34;;;;;;;92.60;8.63;;;2.20;99.90;;;;;;5032846;28;20044;-75
2023/03/03 04:30:01;;;;;;;91.57;8.18;;;2.00;99.90;;;;;;5050052;28;20042;-75
2023/03/03 04:32:27;;;;;;;107.20;10.25;;;1.50;99.90;;;;;;5049442;28;20072;-75
2023/03/03 04:34:53;;;;;;;51.83;6.78;;;1.60;99.90;;;;;;5032385;28;20166;-76
2023/03/03 04:37:18;;;;;;;74.07;8.50;;;2.40;99.90;;;;;;5032473;28;20052;-75
2023/03/03 04:39:44;;;;;;;86.22;9.15;;;1.40;99.90;;;;;;5050077;28;20104;-75
2023/03/03 04:42:10;;;;;;;54.63;7.88;;;1.60;99.90;;;;;;5032164;28;20076;-75
2023/03/03 04:44:36;;;;;;;73.80;8.68;;;1.40;99.90;;;;;;5049798;28;20041;-75
2023/03/03 04:47:02;;;;;;;87.68;9.40;;;1.80;99.90;;;;;;5032324;28;20103;-75
2023/03/03 04:49:27;;;;;;;69.03;6.25;;;1.90;99.90;;;;;;5036216;28;20053;-75
2023/03/03 04:51:53;;;;;;;112.70;8.40;;;2.30;99.90;;;;;;5035758;28;20158;-75
2023/03/03 04:54:19;;;;;;;141.10;10.18;;;2.10;99.90;;;;;;5035631;28;20049;-75
2023/03/03 04:56:44;;;;;;;73.85;7.38;;;2.20;99.90;;;;;;5053145;28;20041;-75
2023/03/03 04:59:10;;;;;;;85.18;7.53;;;1.70;99.90;;;;;;5035624;28;20094;-75
2023/03/03 05:01:36;;;;;;;117.07;8.93;;;2.90;99.90;;;;;;5034735;28;20037;-75
2023/03/03 05:04:02;;;;;;;97.53;7.13;;;2.50;99.90;;;;;;5053633;28;20037;-75
2023/03/03 05:06:27;;;;;;;71.78;6.35;;;1.10;99.90;;;;;;5053204;28;20045;-75
2023/03/03 05:08:53;;;;;;;68.63;6.80;;;1.90;99.90;;;;;;5035700;28;20044;-75
2023/03/03 05:11:19;;;;;;;55.50;5.40;;;2.60;99.90;;;;;;5053202;28;20500;-75
2023/03/03 05:13:45;;;;;;;67.47;6.35;;;0.80;99.90;;;;;;5053614;28;20076;-75
2023/03/03 05:16:10;;;;;;;77.43;5.75;;;1.00;99.90;;;;;;5035127;28;20057;-75
2023/03/03 05:18:36;;;;;;;49.80;4.70;;;1.40;99.90;;;;;;5002642;28;20466;-75
2023/03/03 05:21:02;;;;;;;65.47;5.07;;;0.70;99.90;;;;;;5035365;28;20045;-75
2023/03/03 05:23:28;;;;;;;48.72;4.53;;;0.60;99.90;;;;;;5052882;28;20538;-75
2023/03/03 05:25:54;;;;;;;71.68;5.82;;;0.60;99.90;;;;;;5035162;28;20037;-75
2023/03/03 05:28:20;;;;;;;75.60;5.03;;;0.60;99.90;;;;;;5035097;28;20052;-74
2023/03/03 05:30:45;;;;;;;46.65;4.10;;;0.50;99.90;;;;;;5035290;28;20052;-75
2023/03/03 05:33:13;;;;;;;51.38;5.13;;;1.50;99.90;;;;;;5052243;28;20419;-75
2023/03/03 05:35:39;;;;;;;47.17;3.97;;;1.40;99.90;;;;;;5053150;28;20090;-75
2023/03/03 05:38:05;;;;;;;33.13;3.78;;;1.50;99.90;;;;;;5052669;28;20045;-75
2023/03/03 05:40:31;;;;;;;29.65;4.03;;;0.80;99.90;;;;;;5018283;28;20045;-75
2023/03/03 05:42:57;;;;;;;63.20;5.72;;;1.20;99.90;;;;;;5034834;28;20037;-76
2023/03/03 05:45:23;;;;;;;30.60;4.72;;;0.40;99.90;;;;;;5034735;28;20041;-75
2023/03/03 05:47:52;;;;;;;33.67;4.47;;;0.60;99.90;;;;;;5053018;28;20131;-75
2023/03/03 05:50:20;;;;;;;37.50;4.75;;;0.40;99.90;;;;;;5018378;28;20044;-75
2023/03/03 05:52:52;;;;;;;37.97;5.53;;;0.20;99.90;;;;;;5034943;28;20106;-75
2023/03/03 05:55:18;;;;;;;27.58;4.80;;;1.30;99.90;;;;;;5052262;28;20045;-75
2023/03/03 05:57:44;;;;;;;48.70;5.82;;;0.20;99.90;;;;;;5052400;28;20393;-75
2023/03/03 06:00:11;;;;;;;37.95;6.05;;;0.60;99.90;;;;;;5051509;28;20466;-75
2023/03/03 06:02:36;;;;;;;29.52;4.82;;;0.40;99.90;;;;;;5034348;28;20060;-75
2023/03/03 06:05:02;;;;;;;25.30;5.30;;;0.90;99.90;;;;;;5035267;28;20041;-75
2023/03/03 06:07:28;;;;;;;47.75;5.40;;;0.10;99.90;;;;;;5034717;28;20077;-75
2023/03/03 06:09:54;;;;;;;20.50;3.80;;;0.30;99.90;;;;;;5052118;28;20488;-76
2023/03/03 06:12:19;;;;;;;18.85;3.90;;;0.00;99.90;;;;;;5051706;28;20057;-75
2023/03/03 06:14:45;;;;;;;27.52;3.75;;;0.20;99.90;;;;;;5052345;28;20048;-76
2023/03/03 06:17:11;;;;;;;30.75;4.10;;;0.30;99.90;;;;;;5034550;28;20369;-75
2023/03/03 06:19:37;;;;;;;35.08;4.18;;;0.00;99.90;;;;;;5034351;28;20140;-75
2023/03/03 06:22:03;;;;;;;16.65;3.53;;;1.00;99.90;;;;;;5052087;28;20049;-75
2023/03/03 06:24:30;;;;;;;25.70;4.25;;;1.40;99.90;;;;;;5051783;28;20045;-75
2023/03/03 06:27:00;;;;;;;34.97;4.93;;;0.50;99.90;;;;;;5034178;28;20049;-76
2023/03/03 06:29:26;;;;;;;25.88;4.13;;;0.20;99.90;;;;;;5017847;28;20037;-76
2023/03/03 06:31:52;;;;;;;17.60;4.00;;;0.20;99.90;;;;;;5033743;28;20084;-76
2023/03/03 06:34:18;;;;;;;43.08;5.00;;;0.40;99.90;;;;;;5034187;28;20073;-75
2023/03/03 06:36:44;;;;;;;53.72;5.85;;;0.20;99.90;;;;;;5034096;28;20041;-77
2023/03/03 06:39:09;;;;;;;23.02;3.65;;;0.00;99.90;;;;;;5051831;28;20048;-75
2023/03/03 06:41:35;;;;;;;53.20;5.75;;;0.90;99.90;;;;;;5051354;28;20553;-76
2023/03/03 06:44:01;;;;;;;22.00;4.05;;;1.10;99.90;;;;;;5034021;28;20052;-76
2023/03/03 06:46:27;;;;;;;27.20;4.53;;;0.10;99.90;;;;;;5051719;28;20086;-75
2023/03/03 06:48:53;;;;;;;29.58;4.28;;;0.80;99.90;;;;;;5034156;28;20045;-75
2023/03/03 06:51:33;;;;;;;37.03;4.22;;;0.20;99.90;;;;;;5017462;28;20117;-75
2023/03/03 06:54:05;;;;;;;20.88;4.03;;;0.20;99.90;;;;;;5051330;28;20045;-76
2023/03/03 06:56:34;;;;;;;22.15;4.03;;;0.20;99.90;;;;;;5033914;28;20047;-76
2023/03/03 06:59:02;;;;;;;22.63;5.10;;;0.40;99.90;;;;;;5051371;28;20119;-76
2023/03/03 07:01:34;;;;;;;27.10;5.80;;;0.40;99.90;;;;;;5051300;28;20123;-82
2023/03/03 07:04:00;;;;;;;19.02;4.63;;;1.10;99.90;;;;;;5051412;28;20045;-76
2023/03/03 07:06:27;;;;;;;38.38;4.93;;;1.80;99.90;;;;;;5033494;28;20101;-77
2023/03/03 07:08:53;;;;;;;14.23;4.40;;;0.30;99.90;;;;;;5017157;28;20041;-76
2023/03/03 07:11:23;;;;;;;8.90;3.75;;;0.70;99.90;;;;;;5051219;28;20132;-75
2023/03/03 07:13:50;;;;;;;23.52;5.43;;;0.90;99.90;;;;;;5016856;28;20057;-76
2023/03/03 07:16:18;;;;;;;28.40;6.03;;;1.10;99.90;;;;;;5050947;28;20485;-76
2023/03/03 07:18:53;;;;;;;35.97;5.53;;;1.10;99.90;;;;;;5051081;28;20478;-76
2023/03/03 07:21:21;;;;;;;21.75;3.88;;;0.50;99.90;;;;;;5033377;28;20144;-76
2023/03/03 07:23:49;;;;;;;18.58;4.28;;;0.50;99.90;;;;;;5051150;28;20037;-75
2023/03/03 07:26:22;;;;;;;14.40;4.38;;;0.30;99.90;;;;;;5033282;28;20114;-76
2023/03/03 07:28:55;;;;;;;21.75;6.45;;;0.40;99.90;;;;;;5051023;28;20052;-75
2023/03/03 07:31:44;;;;;;;18.25;3.38;;;0.40;99.90;;;;;;5050889;28;20060;-75
2023/03/03 07:34:22;;;;;;;15.52;3.67;;;0.60;99.90;;;;;;5033129;28;20044;-76
2023/03/03 07:37:00;;;;;;;18.75;3.08;;;1.60;99.90;;;;;;5033533;28;20049;-74
2023/03/03 07:39:37;;;;;;;21.38;4.10;;;0.60;99.90;;;;;;5050868;28;20506;-75
2023/03/03 07:42:18;;;;;;;20.42;4.38;;;1.20;99.90;;;;;;5033031;28;20084;-75
2023/03/03 07:44:45;;;;;;;20.42;3.25;;;1.50;99.90;;;;;;5050967;28;20087;-75
2023/03/03 07:47:19;;;;;;;12.43;3.00;;;1.90;99.90;;;;;;5032977;28;20120;-75
2023/03/03 07:49:47;;;;;;;12.40;3.17;;;0.80;99.90;;;;;;5033121;28;20056;-75
2023/03/03 07:52:25;;;;;;;14.02;2.97;;;1.10;99.90;;;;;;5050529;28;20040;-75
2023/03/03 07:54:51;;;;;;;19.65;3.95;;;1.40;99.90;;;;;;5032953;28;20033;-75
2023/03/03 07:57:23;;;;;;;16.95;3.35;;;1.90;99.90;;;;;;5050647;28;20041;-75
2023/03/03 08:00:07;;;;;;;16.05;3.83;;;1.10;99.90;;;;;;5050621;28;20104;-75
2023/03/03 08:02:45;;;;;;;21.17;3.92;;;1.70;99.90;;;;;;5049925;28;20056;-75
2023/03/03 08:05:26;;;;;;;8.80;3.30;;;1.50;99.90;;;;;;5050236;28;20060;-75
2023/03/03 08:07:53;;;;;;;16.05;3.95;;;1.40;99.90;;;;;;5033085;28;20047;-75
2023/03/03 08:10:27;;;;;;;21.83;4.55;;;1.20;99.90;;;;;;5050171;28;20048;-75
2023/03/03 08:12:54;;;;;;;18.27;4.68;;;1.60;99.90;;;;;;5015962;28;20045;-75
2023/03/03 08:15:31;;;;;;;8.45;3.15;;;1.70;99.90;;;;;;5032809;28;20056;-76
2023/03/03 08:18:00;;;;;;;18.17;3.97;;;2.30;99.90;;;;;;5032976;28;20045;-75
2023/03/03 08:20:43;;;;;;;20.30;3.83;;;1.30;99.90;;;;;;5050171;28;20041;-75
2023/03/03 08:23:09;;;;;;;14.00;3.70;;;1.50;99.90;;;;;;5031869;28;20049;-75
2023/03/03 08:25:35;;;;;;;17.80;3.67;;;2.30;99.90;;;;;;5050124;28;20044;-75
2023/03/03 08:28:00;;;;;;;6.22;3.20;;;2.30;99.90;;;;;;5049937;28;20108;-75
2023/03/03 08:30:26;;;;;;;9.35;3.83;;;1.60;99.90;;;;;;5032663;28;20192;-75
2023/03/03 08:32:52;;;;;;;7.72;3.65;;;1.90;99.90;;;;;;5049760;28;20047;-75
2023/03/03 08:35:17;;;;;;;20.02;3.80;;;1.60;99.90;;;;;;5050136;28;20045;-70
2023/03/03 08:37:43;;;;;;;7.00;3.83;;;2.80;99.90;;;;;;5055462;28;20147;-73
2023/03/03 08:40:09;;;;;;;5.82;3.10;;;1.80;99.90;;;;;;5050958;28;20048;-73
2023/03/03 08:42:35;;;;;;;7.70;3.80;;;1.80;99.90;;;;;;5032513;28;20037;-74
2023/03/03 08:45:01;;;;;;;6.97;3.08;;;1.70;99.90;;;;;;5054206;28;20093;-73
2023/03/03 08:47:26;;;;;;;9.15;3.60;;;2.30;99.90;;;;;;5032976;28;20044;-75
2023/03/03 08:49:53;;;;;;;8.02;3.90;;;1.90;99.90;;;;;;5050566;28;20367;-75
2023/03/03 08:52:19;;;;;;;8.00;4.55;;;1.90;99.90;;;;;;5032399;28;20053;-75
2023/03/03 08:54:44;;;;;;;6.78;3.97;;;2.20;99.90;;;;;;5050277;28;20079;-75
2023/03/03 08:57:10;;;;;;;9.23;5.75;;;2.90;99.90;;;;;;5049767;28;20359;-74
2023/03/03 08:59:37;;;;;;;7.95;4.28;;;2.10;99.90;;;;;;5033027;28;20093;-74
2023/03/03 09:02:05;;;;;;;10.50;4.47;;;2.10;99.90;;;;;;5049373;28;20401;-75
2023/03/03 09:04:31;;;;;;;7.80;4.68;;;2.20;99.90;;;;;;5050171;28;20056;-75
2023/03/03 09:06:56;;;;;;;7.03;4.43;;;2.30;99.90;;;;;;5049731;28;20041;-76
2023/03/03 09:09:23;;;;;;;7.63;4.03;;;2.90;99.90;;;;;;5032283;28;20470;-75
2023/03/03 09:11:49;;;;;;;10.98;4.95;;;2.90;99.90;;;;;;5032057;28;20076;-75
2023/03/03 09:14:17;;;;;;;10.85;4.30;;;2.50;99.90;;;;;;5031845;28;20550;-76
2023/03/03 09:16:50;;;;;;;6.78;4.13;;;2.50;99.90;;;;;;5032494;28;20048;-75
2023/03/03 09:19:32;;;;;;;6.78;4.00;;;2.60;99.90;;;;;;5049575;28;20037;-75
2023/03/03 09:22:20;;;;;;;7.85;4.43;;;2.60;99.90;;;;;;5046322;28;20136;-79
2023/03/03 09:24:48;;;;;;;5.40;3.97;;;2.60;99.90;;;;;;5040435;28;20068;-74
2023/03/03 09:27:33;;;;;;;6.43;3.70;;;3.30;99.90;;;;;;5039950;28;20476;-74
2023/03/03 09:30:31;;;;;;;8.13;4.38;;;3.00;99.90;;;;;;5040112;28;20052;-73
2023/03/03 09:32:57;;;;;;;4.88;3.38;;;2.70;99.90;;;;;;5038763;28;20053;-74
2023/03/03 09:35:36;;;;;;;6.45;4.10;;;2.90;99.90;;;;;;5022760;28;20109;-75
2023/03/03 09:38:32;;;;;;;7.10;4.10;;;2.60;99.90;;;;;;5041594;28;20094;-74
2023/03/03 09:41:16;;;;;;;5.50;2.80;;;3.40;99.90;;;;;;5010526;28;20101;-74
2023/03/03 09:43:54;;;;;;;4.85;3.33;;;2.70;99.90;;;;;;5040972;28;20117;-75
2023/03/03 09:46:23;;;;;;;4.57;2.95;;;2.70;99.90;;;;;;5043541;28;20049;-74
2023/03/03 09:49:03;;;;;;;4.65;2.45;;;2.70;99.90;;;;;;5045281;28;20053;-75
2023/03/03 09:51:45;;;;;;;4.03;2.58;;;2.80;99.90;;;;;;5052682;28;20045;-75
2023/03/03 09:54:33;;;;;;;5.57;2.72;;;2.90;99.90;;;;;;5052801;28;20072;-74
2023/03/03 09:57:24;;;;;;;7.15;2.72;;;3.00;99.90;;;;;;5052763;28;20493;-74
2023/03/03 10:00:08;;;;;;;4.00;2.40;;;3.00;99.90;;;;;;5034700;28;20105;-75
2023/03/03 10:02:57;;;;;;;5.95;2.80;;;3.00;99.90;;;;;;5034567;28;20041;-75
2023/03/03 10:05:55;;;;;;;7.55;4.47;;;3.20;99.90;;;;;;5052575;28;20041;-75
2023/03/03 10:08:41;;;;;;;4.88;3.28;;;3.30;99.90;;;;;;5052459;28;20109;-75
2023/03/03 10:11:28;;;;;;;5.63;3.15;;;3.60;99.90;;;;;;5052378;28;20049;-75
2023/03/03 10:14:02;;;;;;;6.63;3.78;;;3.50;99.90;;;;;;5034343;28;20048;-74
2023/03/03 10:16:51;;;;;;;5.95;3.28;;;3.60;99.90;;;;;;5034691;28;20493;-74
2023/03/03 10:19:29;;;;;;;5.05;3.03;;;3.80;99.90;;;;;;5035321;28;20375;-73
2023/03/03 10:22:19;;;;;;;4.45;3.03;;;3.70;99.90;;;;;;5052299;28;20473;-74
2023/03/03 10:24:50;;;;;;;4.72;3.35;;;3.80;99.90;;;;;;5051988;28;20056;-75
2023/03/03 10:27:37;;;;;;;5.25;2.70;;;3.80;99.90;;;;;;5034731;28;20053;-75
2023/03/03 10:30:42;;;;;;;6.38;2.70;;;4.00;99.90;;;;;;5052172;28;20037;-75
2023/03/03 10:33:25;;;;;;;5.00;2.65;;;4.00;99.90;;;;;;5051031;28;20055;-75
2023/03/03 10:36:06;;;;;;;5.28;2.65;;;4.10;99.90;;;;;;5043435;28;20067;-76
2023/03/03 10:39:06;;;;;;;4.07;3.03;;;4.20;99.90;;;;;;5050712;28;20481;-74
2023/03/03 10:41:37;;;;;;;3.60;3.00;;;4.30;99.90;;;;;;5069700;28;20052;-74
2023/03/03 10:44:05;;;;;;;3.60;2.70;;;4.40;99.90;;;;;;5062408;28;20085;-74
2023/03/03 10:46:37;;;;;;;4.45;2.35;;;4.40;99.90;;;;;;5035705;28;20048;-75
2023/03/03 10:49:43;;;;;;;4.20;2.13;;;4.60;99.90;;;;;;5052079;28;20128;-75
2023/03/03 10:52:27;;;;;;;5.82;2.17;;;4.60;99.90;;;;;;5064532;28;20116;-75
2023/03/03 10:54:53;;;;;;;;;;;4.70;99.90;;;;;;5068164;28;20437;-75
2023/03/03 10:57:51;;;;;;;4.82;2.47;;;4.80;99.90;;;;;;5038295;28;19920;-73
2023/03/03 11:00:28;;;;;;;3.63;2.28;;;4.90;99.90;;;;;;5054973;28;20072;-74
2023/03/03 11:03:09;;;;;;;3.33;2.08;;;4.90;99.90;;;;;;5037963;28;20077;-73
2023/03/03 11:05:40;;;;;;;4.90;2.30;;;5.40;99.90;;;;;;5031009;28;20051;-74
2023/03/03 11:08:37;;;;;;;2.70;2.17;;;5.30;99.90;;;;;;5023625;28;20073;-73
2023/03/03 11:11:30;;;;;;;4.47;2.10;;;5.10;99.90;;;;;;5022715;28;20076;-73
2023/03/03 11:14:22;;;;;;;3.03;2.00;;;5.10;99.90;;;;;;5022584;28;20049;-74
2023/03/03 11:17:15;;;;;;;4.40;1.45;;;5.40;99.90;;;;;;5039471;28;20037;-75
2023/03/03 11:19:56;;;;;;;2.15;1.40;;;5.50;99.90;;;;;;5023636;28;20351;-75
2023/03/03 11:22:45;;;;;;;3.50;1.30;;;5.80;99.90;;;;;;5039728;28;20037;-74
2023/03/03 11:25:32;;;;;;;4.30;1.95;;;5.70;99.90;;;;;;5051031;27;20057;-75
2023/03/03 11:28:04;;;;;;;4.18;1.50;;;4.90;99.90;;;;;;5039436;28;20102;-76
2023/03/03 11:30:55;;;;;;;4.43;1.60;;;5.80;99.90;;;;;;5023197;28;20090;-74
2023/03/03 11:33:59;;;;;;;6.25;2.13;;;5.80;99.90;;;;;;5040887;28;20374;-74
2023/03/03 11:36:48;;;;;;;2.83;1.75;;;6.10;99.90;;;;;;5040086;28;20049;-73
2023/03/03 11:39:19;;;;;;;4.53;1.95;;;6.10;99.90;;;;;;5032615;28;20071;-75
2023/03/03 11:42:12;;;;;;;3.47;1.95;;;5.90;99.90;;;;;;5040629;28;20389;-74
2023/03/03 11:45:07;;;;;;;3.88;1.73;;;5.90;99.90;;;;;;5039871;28;20108;-75
2023/03/03 11:48:19;;;;;;;3.17;1.45;;;6.00;99.90;;;;;;5033072;28;20070;-75
2023/03/03 11:51:05;;;;;;;3.97;1.73;;;6.00;99.90;;;;;;5014363;28;20058;-74
2023/03/03 11:54:12;;;;;;;4.05;1.50;;;6.00;99.90;;;;;;5023142;28;20522;-75
2023/03/03 11:56:41;;;;;;;3.17;1.48;;;6.00;99.90;;;;;;4942585;28;20047;-73
2023/03/03 11:59:16;;;;;;;3.95;1.85;;;6.10;99.90;;;;;;4958752;28;20074;-74
2023/03/03 12:01:55;;;;;;;2.35;1.30;;;6.10;99.90;;;;;;5003614;28;20084;-75
2023/03/03 12:04:35;;;;;;;2.25;1.42;;;6.10;99.90;;;;;;5022153;28;20045;-74
2023/03/03 12:07:14;;;;;;;2.13;0.60;;;6.40;99.90;;;;;;5030144;28;20044;-74
2023/03/03 12:09:53;;;;;;;3.97;0.90;;;6.10;99.90;;;;;;5023876;28;20049;-76
2023/03/03 12:12:30;;;;;;;3.15;1.90;;;6.20;99.90;;;;;;5039423;28;20041;-74
2023/03/03 12:15:29;;;;;;;1.30;0.60;;;6.00;99.90;;;;;;5037815;28;20042;-73
2023/03/03 12:18:14;;;;;;;0.70;0.60;;;6.10;99.90;;;;;;5040864;28;20056;-74
2023/03/03 12:20:43;;;;;;;2.75;1.13;;;6.20;99.90;;;;;;5038024;28;20473;-74
2023/03/03 12:23:38;;;;;;;0.50;0.30;;;6.20;99.90;;;;;;5042847;28;20174;-79
2023/03/03 12:26:08;;;;;;;1.55;0.52;;;6.30;99.90;;;;;;5024790;28;20068;-74
2023/03/03 12:28:45;;;;;;;0.95;0.50;;;6.30;99.90;;;;;;5043497;28;20049;-75
2023/03/03 12:31:21;;;;;;;0.50;0.50;;;6.40;99.90;;;;;;5011280;28;20085;-76
2023/03/03 12:34:29;;;;;;;1.33;0.57;;;6.40;99.90;;;;;;5024452;28;20044;-73
2023/03/03 12:37:04;;;;;;;1.35;0.50;;;6.40;99.90;;;;;;5047002;28;20098;-74
2023/03/03 12:39:51;;;;;;;2.33;0.50;;;6.40;99.90;;;;;;5023521;28;20044;-73
2023/03/03 12:42:16;;;;;;;1.48;0.50;;;6.40;99.90;;;;;;5042659;28;20038;-72
2023/03/03 12:45:06;;;;;;;0.93;0.38;;;6.40;99.90;;;;;;5043184;28;20120;-72
2023/03/03 12:47:35;;;;;;;1.90;0.50;;;6.50;99.90;;;;;;5041271;28;20037;-73
2023/03/03 12:50:09;;;;;;;4.25;0.40;;;6.70;99.90;;;;;;5042276;28;20040;-72
2023/03/03 12:52:44;;;;;;;2.08;0.43;;;6.70;99.90;;;;;;5041117;28;20041;-72
2023/03/03 12:55:27;;;;;;;1.70;0.40;;;6.60;99.90;;;;;;5014624;28;20048;-74
2023/03/03 12:57:59;;;;;;;1.05;0.40;;;6.60;99.90;;;;;;5037516;27;20043;-74
2023/03/03 13:01:10;;;;;;;3.42;0.40;;;6.60;99.90;;;;;;5047612;27;20049;-74
2023/03/03 13:03:48;;;;;;;2.08;0.30;;;6.70;99.90;;;;;;5030890;28;20050;-74
2023/03/03 13:06:30;;;;;;;2.20;0.43;;;6.70;99.90;;;;;;5029212;28;20034;-72
2023/03/03 13:09:22;;;;;;;1.52;0.40;;;6.70;99.90;;;;;;5031035;28;20076;-73
2023/03/03 13:11:59;;;;;;;2.70;0.50;;;6.80;99.90;;;;;;5033396;28;20049;-73
2023/03/03 13:14:45;;;;;;;3.38;0.50;;;6.80;99.90;;;;;;5014857;28;20393;-73
2023/03/03 13:17:29;;;;;;;2.55;0.80;;;6.80;99.90;;;;;;5041168;28;20049;-72